sensor_id;sensor_type;location;lat;lon;timestamp;pressure;altitude;pressure_sealevel;temperature
43802;BMP280;29429;51.074;13.764;2024-03-08T00:00:00;100561.34;;;3.81
43802;BMP280;29429;51.074;13.764;2024-03-08T00:02:41;100568.56;;;3.69
43802;BMP280;29429;51.074;13.764;2024-03-08T00:05:09;100556.78;;;3.64
43802;BMP280;29429;51.074;13.764;2024-03-08T00:07:37;100553.84;;;3.57
43802;BMP280;29429;51.074;13.764;2024-03-08T00:10:07;100555.38;;;3.50
43802;BMP280;29429;51.074;13.764;2024-03-08T00:12:41;100557.63;;;3.36
43802;BMP280;29429;51.074;13.764;2024-03-08T00:15:16;100561.50;;;3.32
43802;BMP280;29429;51.074;13.764;2024-03-08T00:17:46;100557.88;;;3.23
43802;BMP280;29429;51.074;13.764;2024-03-08T00:20:14;100551.50;;;3.16
43802;BMP280;29429;51.074;13.764;2024-03-08T00:22:42;100543.59;;;3.06
43802;BMP280;29429;51.074;13.764;2024-03-08T00:25:10;100561.47;;;3.03
43802;BMP280;29429;51.074;13.764;2024-03-08T00:27:37;100552.56;;;2.94
43802;BMP280;29429;51.074;13.764;2024-03-08T00:30:11;100550.63;;;2.87
43802;BMP280;29429;51.074;13.764;2024-03-08T00:32:39;100556.16;;;2.84
43802;BMP280;29429;51.074;13.764;2024-03-08T00:35:07;100550.03;;;2.74
43802;BMP280;29429;51.074;13.764;2024-03-08T00:37:35;100555.47;;;2.72
43802;BMP280;29429;51.074;13.764;2024-03-08T00:40:02;100557.78;;;2.66
43802;BMP280;29429;51.074;13.764;2024-03-08T00:42:30;100555.81;;;2.58
43802;BMP280;29429;51.074;13.764;2024-03-08T00:44:56;100555.06;;;2.46
43802;BMP280;29429;51.074;13.764;2024-03-08T00:47:24;100560.16;;;2.38
43802;BMP280;29429;51.074;13.764;2024-03-08T00:49:51;100560.97;;;2.29
43802;BMP280;29429;51.074;13.764;2024-03-08T00:52:19;100551.38;;;2.19
43802;BMP280;29429;51.074;13.764;2024-03-08T00:54:46;100547.72;;;2.10
43802;BMP280;29429;51.074;13.764;2024-03-08T00:57:13;100555.31;;;2.04
43802;BMP280;29429;51.074;13.764;2024-03-08T00:59:40;100555.69;;;1.99
43802;BMP280;29429;51.074;13.764;2024-03-08T01:02:08;100546.91;;;1.89
43802;BMP280;29429;51.074;13.764;2024-03-08T01:04:37;100549.69;;;1.88
43802;BMP280;29429;51.074;13.764;2024-03-08T01:07:05;100554.94;;;1.88
43802;BMP280;29429;51.074;13.764;2024-03-08T01:09:32;100551.03;;;1.82
43802;BMP280;29429;51.074;13.764;2024-03-08T01:11:59;100555.72;;;1.78
43802;BMP280;29429;51.074;13.764;2024-03-08T01:14:27;100555.41;;;1.72
43802;BMP280;29429;51.074;13.764;2024-03-08T01:16:55;100543.72;;;1.65
43802;BMP280;29429;51.074;13.764;2024-03-08T01:19:23;100539.16;;;1.67
43802;BMP280;29429;51.074;13.764;2024-03-08T01:21:51;100545.63;;;1.63
43802;BMP280;29429;51.074;13.764;2024-03-08T01:24:18;100534.69;;;1.58
43802;BMP280;29429;51.074;13.764;2024-03-08T01:26:45;100537.06;;;1.61
43802;BMP280;29429;51.074;13.764;2024-03-08T01:29:12;100528.72;;;1.56
43802;BMP280;29429;51.074;13.764;2024-03-08T01:31:39;100532.06;;;1.58
43802;BMP280;29429;51.074;13.764;2024-03-08T01:34:06;100523.31;;;1.57
43802;BMP280;29429;51.074;13.764;2024-03-08T01:36:33;100526.53;;;1.61
43802;BMP280;29429;51.074;13.764;2024-03-08T01:39:00;100518.91;;;1.58
43802;BMP280;29429;51.074;13.764;2024-03-08T01:41:27;100516.78;;;1.52
43802;BMP280;29429;51.074;13.764;2024-03-08T01:43:56;100504.53;;;1.41
43802;BMP280;29429;51.074;13.764;2024-03-08T01:46:23;100506.91;;;1.44
43802;BMP280;29429;51.074;13.764;2024-03-08T01:48:51;100498.44;;;1.41
43802;BMP280;29429;51.074;13.764;2024-03-08T01:51:19;100502.88;;;1.40
43802;BMP280;29429;51.074;13.764;2024-03-08T01:53:48;100495.13;;;1.39
43802;BMP280;29429;51.074;13.764;2024-03-08T01:56:16;100502.16;;;1.38
43802;BMP280;29429;51.074;13.764;2024-03-08T01:58:45;100491.53;;;1.40
43802;BMP280;29429;51.074;13.764;2024-03-08T02:01:15;100497.88;;;1.37
43802;BMP280;29429;51.074;13.764;2024-03-08T02:03:44;100503.25;;;1.36
43802;BMP280;29429;51.074;13.764;2024-03-08T02:06:12;100495.16;;;1.28
43802;BMP280;29429;51.074;13.764;2024-03-08T02:08:45;100494.03;;;1.20
43802;BMP280;29429;51.074;13.764;2024-03-08T02:11:14;100499.53;;;1.17
43802;BMP280;29429;51.074;13.764;2024-03-08T02:13:42;100495.75;;;1.10
43802;BMP280;29429;51.074;13.764;2024-03-08T02:16:10;100498.22;;;1.12
43802;BMP280;29429;51.074;13.764;2024-03-08T02:18:37;100496.69;;;1.09
43802;BMP280;29429;51.074;13.764;2024-03-08T02:21:06;100484.06;;;1.03
43802;BMP280;29429;51.074;13.764;2024-03-08T02:23:36;100491.00;;;1.04
43802;BMP280;29429;51.074;13.764;2024-03-08T02:26:04;100484.06;;;1.03
43802;BMP280;29429;51.074;13.764;2024-03-08T02:28:31;100480.72;;;1.01
43802;BMP280;29429;51.074;13.764;2024-03-08T02:30:59;100482.41;;;1.02
43802;BMP280;29429;51.074;13.764;2024-03-08T02:33:27;100469.06;;;0.94
43802;BMP280;29429;51.074;13.764;2024-03-08T02:35:55;100476.69;;;0.97
43802;BMP280;29429;51.074;13.764;2024-03-08T02:38:25;100470.75;;;0.95
43802;BMP280;29429;51.074;13.764;2024-03-08T02:40:53;100470.75;;;0.95
43802;BMP280;29429;51.074;13.764;2024-03-08T02:43:22;100471.00;;;0.92
43802;BMP280;29429;51.074;13.764;2024-03-08T02:45:51;100472.66;;;0.93
43802;BMP280;29429;51.074;13.764;2024-03-08T02:48:21;100468.38;;;0.92
43802;BMP280;29429;51.074;13.764;2024-03-08T02:50:49;100477.91;;;0.93
43802;BMP280;29429;51.074;13.764;2024-03-08T02:53:18;100466.69;;;0.91
43802;BMP280;29429;51.074;13.764;2024-03-08T02:55:45;100472.66;;;0.93
43802;BMP280;29429;51.074;13.764;2024-03-08T02:58:13;100462.66;;;0.87
43802;BMP280;29429;51.074;13.764;2024-03-08T03:00:41;100473.16;;;0.87
43802;BMP280;29429;51.074;13.764;2024-03-08T03:03:11;100472.66;;;0.93
43802;BMP280;29429;51.074;13.764;2024-03-08T03:05:39;100471.69;;;0.94
43802;BMP280;29429;51.074;13.764;2024-03-08T03:08:13;100468.22;;;0.94
43802;BMP280;29429;51.074;13.764;2024-03-08T03:10:40;100471.81;;;0.93
43802;BMP280;29429;51.074;13.764;2024-03-08T03:13:08;100460.16;;;0.86
43802;BMP280;29429;51.074;13.764;2024-03-08T03:15:35;100458.50;;;0.85
43802;BMP280;29429;51.074;13.764;2024-03-08T03:18:04;100455.97;;;0.83
43802;BMP280;29429;51.074;13.764;2024-03-08T03:20:35;100459.56;;;0.82
43802;BMP280;29429;51.074;13.764;2024-03-08T03:23:09;100457.06;;;0.81
43802;BMP280;29429;51.074;13.764;2024-03-08T03:25:40;100455.06;;;0.73
43802;BMP280;29429;51.074;13.764;2024-03-08T03:28:08;100451.75;;;0.71
43802;BMP280;29429;51.074;13.764;2024-03-08T03:30:37;100461.72;;;0.77
43802;BMP280;29429;51.074;13.764;2024-03-08T03:33:04;100451.97;;;0.79
43802;BMP280;29429;51.074;13.764;2024-03-08T03:35:35;100454.13;;;0.74
43802;BMP280;29429;51.074;13.764;2024-03-08T03:38:04;100464.13;;;0.69
43802;BMP280;29429;51.074;13.764;2024-03-08T03:40:39;100461.78;;;0.66
43802;BMP280;29429;51.074;13.764;2024-03-08T03:43:08;100461.78;;;0.66
43802;BMP280;29429;51.074;13.764;2024-03-08T03:45:37;100457.25;;;0.68
43802;BMP280;29429;51.074;13.764;2024-03-08T03:48:06;100454.72;;;0.67
43802;BMP280;29429;51.074;13.764;2024-03-08T03:50:36;100447.47;;;0.59
43802;BMP280;29429;51.074;13.764;2024-03-08T03:53:04;100455.00;;;0.64
43802;BMP280;29429;51.074;13.764;2024-03-08T03:55:36;100447.47;;;0.59
43802;BMP280;29429;51.074;13.764;2024-03-08T03:58:05;100450.22;;;0.57
43802;BMP280;29429;51.074;13.764;2024-03-08T04:00:32;100450.47;;;0.54
43802;BMP280;29429;51.074;13.764;2024-03-08T04:02:59;100447.84;;;0.54
43802;BMP280;29429;51.074;13.764;2024-03-08T04:05:28;100441.75;;;0.54
43802;BMP280;29429;51.074;13.764;2024-03-08T04:07:55;100449.88;;;0.51
43802;BMP280;29429;51.074;13.764;2024-03-08T04:10:22;100441.44;;;0.47
43802;BMP280;29429;51.074;13.764;2024-03-08T04:12:49;100443.09;;;0.48
43802;BMP280;29429;51.074;13.764;2024-03-08T04:15:16;100435.47;;;0.45
43802;BMP280;29429;51.074;13.764;2024-03-08T04:17:43;100439.91;;;0.45
43802;BMP280;29429;51.074;13.764;2024-03-08T04:20:12;100441.44;;;0.47
43802;BMP280;29429;51.074;13.764;2024-03-08T04:22:42;100439.06;;;0.44
43802;BMP280;29429;51.074;13.764;2024-03-08T04:25:11;100444.31;;;0.44
43802;BMP280;29429;51.074;13.764;2024-03-08T04:27:38;100443.72;;;0.41
43802;BMP280;29429;51.074;13.764;2024-03-08T04:30:06;100436.22;;;0.36
43802;BMP280;29429;51.074;13.764;2024-03-08T04:32:36;100444.19;;;0.35
43802;BMP280;29429;51.074;13.764;2024-03-08T04:35:05;100437.28;;;0.34
43802;BMP280;29429;51.074;13.764;2024-03-08T04:37:32;100430.97;;;0.36
43802;BMP280;29429;51.074;13.764;2024-03-08T04:39:59;100433.47;;;0.38
43802;BMP280;29429;51.074;13.764;2024-03-08T04:42:28;100437.28;;;0.34
43802;BMP280;29429;51.074;13.764;2024-03-08T04:44:57;100433.13;;;0.31
43802;BMP280;29429;51.074;13.764;2024-03-08T04:47:25;100431.44;;;0.30
43802;BMP280;29429;51.074;13.764;2024-03-08T04:49:52;100430.84;;;0.27
43802;BMP280;29429;51.074;13.764;2024-03-08T04:52:20;100438.47;;;0.30
43802;BMP280;29429;51.074;13.764;2024-03-08T04:54:48;100434.22;;;0.29
43802;BMP280;29429;51.074;13.764;2024-03-08T04:57:15;100431.44;;;0.30
43802;BMP280;29429;51.074;13.764;2024-03-08T04:59:45;100429.91;;;0.28
43802;BMP280;29429;51.074;13.764;2024-03-08T05:02:12;100427.16;;;0.29
43802;BMP280;29429;51.074;13.764;2024-03-08T05:04:39;100425.50;;;0.28
43802;BMP280;29429;51.074;13.764;2024-03-08T05:07:06;100425.13;;;0.33
43802;BMP280;29429;51.074;13.764;2024-03-08T05:09:33;100430.63;;;0.30
43802;BMP280;29429;51.074;13.764;2024-03-08T05:12:00;100422.88;;;0.28
43802;BMP280;29429;51.074;13.764;2024-03-08T05:14:28;100423.81;;;0.27
43802;BMP280;29429;51.074;13.764;2024-03-08T05:16:56;100424.91;;;0.25
43802;BMP280;29429;51.074;13.764;2024-03-08T05:19:23;100422.28;;;0.25
43802;BMP280;29429;51.074;13.764;2024-03-08T05:21:50;100421.56;;;0.23
43802;BMP280;29429;51.074;13.764;2024-03-08T05:24:18;100421.72;;;0.21
43802;BMP280;29429;51.074;13.764;2024-03-08T05:26:46;100422.75;;;0.19
43802;BMP280;29429;51.074;13.764;2024-03-08T05:29:14;100417.78;;;0.16
43802;BMP280;29429;51.074;13.764;2024-03-08T05:31:50;100418.97;;;0.12
43802;BMP280;29429;51.074;13.764;2024-03-08T05:34:19;100413.25;;;0.07
43802;BMP280;29429;51.074;13.764;2024-03-08T05:36:46;100415.88;;;0.07
43802;BMP280;29429;51.074;13.764;2024-03-08T05:39:13;100424.59;;;0.07
43802;BMP280;29429;51.074;13.764;2024-03-08T05:41:44;100415.19;;;0.05
43802;BMP280;29429;51.074;13.764;2024-03-08T05:44:13;100418.50;;;0.07
43802;BMP280;29429;51.074;13.764;2024-03-08T05:46:40;100420.03;;;0.09
43802;BMP280;29429;51.074;13.764;2024-03-08T05:49:07;100409.69;;;0.08
43802;BMP280;29429;51.074;13.764;2024-03-08T05:51:38;100405.16;;;0.10
43802;BMP280;29429;51.074;13.764;2024-03-08T05:54:11;100413.03;;;0.10
43802;BMP280;29429;51.074;13.764;2024-03-08T05:56:43;100418.38;;;0.08
43802;BMP280;29429;51.074;13.764;2024-03-08T05:59:12;100411.09;;;0.12
43802;BMP280;29429;51.074;13.764;2024-03-08T06:01:40;100415.97;;;0.16
43802;BMP280;29429;51.074;13.764;2024-03-08T06:04:09;100410.16;;;0.13
43802;BMP280;29429;51.074;13.764;2024-03-08T06:06:38;100412.41;;;0.17
43802;BMP280;29429;51.074;13.764;2024-03-08T06:09:06;100419.66;;;0.25
43802;BMP280;29429;51.074;13.764;2024-03-08T06:11:39;100414.78;;;0.31
43802;BMP280;29429;51.074;13.764;2024-03-08T06:14:06;100415.09;;;0.38
43802;BMP280;29429;51.074;13.764;2024-03-08T06:16:33;100412.81;;;0.44
43802;BMP280;29429;51.074;13.764;2024-03-08T06:19:00;100412.91;;;0.54
43802;BMP280;29429;51.074;13.764;2024-03-08T06:21:29;100415.97;;;0.59
43802;BMP280;29429;51.074;13.764;2024-03-08T06:23:56;100418.81;;;0.67
43802;BMP280;29429;51.074;13.764;2024-03-08T06:26:25;100418.31;;;0.73
43802;BMP280;29429;51.074;13.764;2024-03-08T06:28:56;100416.75;;;0.82
43802;BMP280;29429;51.074;13.764;2024-03-08T06:31:24;100416.38;;;0.86
43802;BMP280;29429;51.074;13.764;2024-03-08T06:33:51;100408.22;;;0.89
43802;BMP280;29429;51.074;13.764;2024-03-08T06:36:18;100416.56;;;0.94
43802;BMP280;29429;51.074;13.764;2024-03-08T06:38:46;100405.56;;;1.00
43802;BMP280;29429;51.074;13.764;2024-03-08T06:41:13;100395.81;;;1.12
43802;BMP280;29429;51.074;13.764;2024-03-08T06:43:43;100393.25;;;1.21
43802;BMP280;29429;51.074;13.764;2024-03-08T06:46:11;100397.97;;;1.28
43802;BMP280;29429;51.074;13.764;2024-03-08T06:48:40;100389.44;;;1.35
43802;BMP280;29429;51.074;13.764;2024-03-08T06:51:07;100396.69;;;1.43
43802;BMP280;29429;51.074;13.764;2024-03-08T06:53:35;100385.91;;;1.46
43802;BMP280;29429;51.074;13.764;2024-03-08T06:56:02;100394.94;;;1.53
43802;BMP280;29429;51.074;13.764;2024-03-08T06:58:29;100387.50;;;1.58
43802;BMP280;29429;51.074;13.764;2024-03-08T07:00:56;100382.41;;;1.66
43802;BMP280;29429;51.074;13.764;2024-03-08T07:03:27;100384.78;;;1.69
43802;BMP280;29429;51.074;13.764;2024-03-08T07:05:56;100384.94;;;1.77
43802;BMP280;29429;51.074;13.764;2024-03-08T07:08:28;100389.66;;;1.83
43802;BMP280;29429;51.074;13.764;2024-03-08T07:10:56;100387.19;;;1.91
43802;BMP280;29429;51.074;13.764;2024-03-08T07:13:26;100383.63;;;1.92
43802;BMP280;29429;51.074;13.764;2024-03-08T07:15:55;100379.88;;;1.95
43802;BMP280;29429;51.074;13.764;2024-03-08T07:18:22;100373.84;;;2.04
43802;BMP280;29429;51.074;13.764;2024-03-08T07:20:50;100372.03;;;2.14
43802;BMP280;29429;51.074;13.764;2024-03-08T07:23:17;100368.47;;;2.24
43802;BMP280;29429;51.074;13.764;2024-03-08T07:26:17;100368.47;;;2.34
43802;BMP280;29429;51.074;13.764;2024-03-08T07:28:45;100376.25;;;2.35
43802;BMP280;29429;51.074;13.764;2024-03-08T07:31:12;100371.81;;;2.45
43802;BMP280;29429;51.074;13.764;2024-03-08T07:33:48;100370.16;;;2.54
43802;BMP280;29429;51.074;13.764;2024-03-08T07:36:17;100365.84;;;2.63
43802;BMP280;29429;51.074;13.764;2024-03-08T07:38:44;100367.66;;;2.72
43802;BMP280;29429;51.074;13.764;2024-03-08T07:41:15;100361.53;;;2.81
43802;BMP280;29429;51.074;13.764;2024-03-08T07:43:43;100365.97;;;2.90
43802;BMP280;29429;51.074;13.764;2024-03-08T07:46:10;100359.88;;;2.99
43802;BMP280;29429;51.074;13.764;2024-03-08T07:48:37;100353.06;;;3.06
43802;BMP280;29429;51.074;13.764;2024-03-08T07:51:04;100351.91;;;3.18
43802;BMP280;29429;51.074;13.764;2024-03-08T07:53:32;100352.88;;;3.27
43802;BMP280;29429;51.074;13.764;2024-03-08T07:55:59;100351.47;;;3.32
43802;BMP280;29429;51.074;13.764;2024-03-08T07:58:26;100355.91;;;3.41
43802;BMP280;29429;51.074;13.764;2024-03-08T08:00:55;100347.78;;;3.52
43802;BMP280;29429;51.074;13.764;2024-03-08T08:03:22;100348.59;;;3.62
43802;BMP280;29429;51.074;13.764;2024-03-08T08:05:49;100348.69;;;3.71
43802;BMP280;29429;51.074;13.764;2024-03-08T08:08:16;100351.41;;;3.79
43802;BMP280;29429;51.074;13.764;2024-03-08T08:10:43;100345.94;;;3.90
43802;BMP280;29429;51.074;13.764;2024-03-08T08:13:10;100343.69;;;3.95
43802;BMP280;29429;51.074;13.764;2024-03-08T08:15:38;100341.00;;;4.04
43802;BMP280;29429;51.074;13.764;2024-03-08T08:18:05;100333.47;;;4.09
43802;BMP280;29429;51.074;13.764;2024-03-08T08:20:33;100339.06;;;4.24
43802;BMP280;29429;51.074;13.764;2024-03-08T08:23:01;100330.09;;;4.35
43802;BMP280;29429;51.074;13.764;2024-03-08T08:25:28;100328.38;;;4.43
43802;BMP280;29429;51.074;13.764;2024-03-08T08:27:55;100326.47;;;4.53
43802;BMP280;29429;51.074;13.764;2024-03-08T08:30:22;100325.56;;;4.62
43802;BMP280;29429;51.074;13.764;2024-03-08T08:32:49;100320.34;;;4.70
43802;BMP280;29429;51.074;13.764;2024-03-08T08:35:16;100317.47;;;4.81
43802;BMP280;29429;51.074;13.764;2024-03-08T08:37:45;100314.19;;;4.87
43802;BMP280;29429;51.074;13.764;2024-03-08T08:40:12;100308.97;;;4.96
43802;BMP280;29429;51.074;13.764;2024-03-08T08:42:42;100305.72;;;5.02
43802;BMP280;29429;51.074;13.764;2024-03-08T08:45:10;100304.63;;;5.12
43802;BMP280;29429;51.074;13.764;2024-03-08T08:47:44;100290.63;;;5.20
43802;BMP280;29429;51.074;13.764;2024-03-08T08:50:13;100295.66;;;5.31
43802;BMP280;29429;51.074;13.764;2024-03-08T08:52:40;100287.13;;;5.45
43802;BMP280;29429;51.074;13.764;2024-03-08T08:55:08;100286.03;;;5.56
43802;BMP280;29429;51.074;13.764;2024-03-08T08:57:35;100287.56;;;5.66
43802;BMP280;29429;51.074;13.764;2024-03-08T09:00:04;100280.13;;;5.78
43802;BMP280;29429;51.074;13.764;2024-03-08T09:02:35;100271.41;;;5.85
43802;BMP280;29429;51.074;13.764;2024-03-08T09:05:02;100267.31;;;5.99
43802;BMP280;29429;51.074;13.764;2024-03-08T09:07:30;100268.81;;;6.09
43802;BMP280;29429;51.074;13.764;2024-03-08T09:09:57;100258.56;;;6.23
43802;BMP280;29429;51.074;13.764;2024-03-08T09:12:26;100253.63;;;6.36
43802;BMP280;29429;51.074;13.764;2024-03-08T09:14:53;100259.59;;;6.46
43802;BMP280;29429;51.074;13.764;2024-03-08T09:17:21;100259.59;;;6.54
43802;BMP280;29429;51.074;13.764;2024-03-08T09:19:49;100254.78;;;6.57
43802;BMP280;29429;51.074;13.764;2024-03-08T09:22:16;100251.47;;;6.63
43802;BMP280;29429;51.074;13.764;2024-03-08T09:24:45;100251.28;;;6.73
43802;BMP280;29429;51.074;13.764;2024-03-08T09:27:12;100245.13;;;6.81
43802;BMP280;29429;51.074;13.764;2024-03-08T09:29:40;100248.59;;;6.89
43802;BMP280;29429;51.074;13.764;2024-03-08T09:32:07;100240.00;;;6.95
43802;BMP280;29429;51.074;13.764;2024-03-08T09:34:34;100230.34;;;7.02
43802;BMP280;29429;51.074;13.764;2024-03-08T09:37:04;100232.97;;;7.10
43802;BMP280;29429;51.074;13.764;2024-03-08T09:39:31;100231.97;;;7.19
43802;BMP280;29429;51.074;13.764;2024-03-08T09:42:01;100228.28;;;7.28
43802;BMP280;29429;51.074;13.764;2024-03-08T09:44:28;100233.22;;;7.40
43802;BMP280;29429;51.074;13.764;2024-03-08T09:46:56;100220.78;;;7.40
43802;BMP280;29429;51.074;13.764;2024-03-08T09:49:26;100221.91;;;7.46
43802;BMP280;29429;51.074;13.764;2024-03-08T09:51:54;100221.06;;;7.53
43802;BMP280;29429;51.074;13.764;2024-03-08T09:54:25;100218.53;;;7.60
43802;BMP280;29429;51.074;13.764;2024-03-08T09:56:53;100221.50;;;7.65
43802;BMP280;29429;51.074;13.764;2024-03-08T09:59:20;100215.66;;;7.69
43802;BMP280;29429;51.074;13.764;2024-03-08T10:01:50;100222.41;;;7.80
43802;BMP280;29429;51.074;13.764;2024-03-08T10:04:19;100204.28;;;7.83
43802;BMP280;29429;51.074;13.764;2024-03-08T10:06:54;100203.75;;;7.88
43802;BMP280;29429;51.074;13.764;2024-03-08T10:09:25;100207.25;;;7.88
43802;BMP280;29429;51.074;13.764;2024-03-08T10:11:56;100205.34;;;7.97
43802;BMP280;29429;51.074;13.764;2024-03-08T10:14:28;100201.00;;;8.04
43802;BMP280;29429;51.074;13.764;2024-03-08T10:16:57;100197.31;;;8.05
43802;BMP280;29429;51.074;13.764;2024-03-08T10:19:29;100187.66;;;8.12
43802;BMP280;29429;51.074;13.764;2024-03-08T10:21:57;100193.91;;;8.19
43802;BMP280;29429;51.074;13.764;2024-03-08T10:24:26;100184.59;;;8.23
43802;BMP280;29429;51.074;13.764;2024-03-08T10:27:02;100176.53;;;8.31
43802;BMP280;29429;51.074;13.764;2024-03-08T10:29:32;100184.28;;;8.41
43802;BMP280;29429;51.074;13.764;2024-03-08T10:31:59;100181.72;;;8.47
43802;BMP280;29429;51.074;13.764;2024-03-08T10:34:28;100173.22;;;8.52
43802;BMP280;29429;51.074;13.764;2024-03-08T10:37:04;100175.69;;;8.53
43802;BMP280;29429;51.074;13.764;2024-03-08T10:39:36;100179.47;;;8.59
43802;BMP280;29429;51.074;13.764;2024-03-08T10:42:05;100169.81;;;8.58
43802;BMP280;29429;51.074;13.764;2024-03-08T10:45:05;100169.28;;;8.63
43802;BMP280;29429;51.074;13.764;2024-03-08T10:47:41;100162.59;;;8.67
43802;BMP280;29429;51.074;13.764;2024-03-08T10:50:19;100157.19;;;8.75
43802;BMP280;29429;51.074;13.764;2024-03-08T10:52:50;100151.72;;;8.76
43802;BMP280;29429;51.074;13.764;2024-03-08T10:55:19;100148.28;;;8.82
43802;BMP280;29429;51.074;13.764;2024-03-08T10:57:58;100148.03;;;8.92
43802;BMP280;29429;51.074;13.764;2024-03-08T11:00:26;100146.84;;;8.94
43802;BMP280;29429;51.074;13.764;2024-03-08T11:02:54;100148.47;;;8.95
43802;BMP280;29429;51.074;13.764;2024-03-08T11:05:39;100151.22;;;9.02
43802;BMP280;29429;51.074;13.764;2024-03-08T11:08:18;100144.97;;;9.09
43802;BMP280;29429;51.074;13.764;2024-03-08T11:10:53;100139.03;;;9.07
43802;BMP280;29429;51.074;13.764;2024-03-08T11:16:37;100132.22;;;9.19
43802;BMP280;29429;51.074;13.764;2024-03-08T11:21:37;100118.16;;;9.26
43802;BMP280;29429;51.074;13.764;2024-03-08T11:24:11;100115.56;;;9.32
43802;BMP280;29429;51.074;13.764;2024-03-08T11:26:40;100116.28;;;9.41
43802;BMP280;29429;51.074;13.764;2024-03-08T11:32:16;100103.06;;;9.47
43802;BMP280;29429;51.074;13.764;2024-03-08T11:34:48;100105.97;;;9.52
43802;BMP280;29429;51.074;13.764;2024-03-08T11:37:19;100097.16;;;9.52
43802;BMP280;29429;51.074;13.764;2024-03-08T11:39:49;100098.03;;;9.59
43802;BMP280;29429;51.074;13.764;2024-03-08T11:42:17;100089.88;;;9.60
43802;BMP280;29429;51.074;13.764;2024-03-08T11:44:48;100082.06;;;9.59
43802;BMP280;29429;51.074;13.764;2024-03-08T11:47:17;100080.84;;;9.61
43802;BMP280;29429;51.074;13.764;2024-03-08T11:49:45;100074.41;;;9.70
43802;BMP280;29429;51.074;13.764;2024-03-08T11:52:16;100067.28;;;9.77
43802;BMP280;29429;51.074;13.764;2024-03-08T11:54:54;100063.03;;;9.83
43802;BMP280;29429;51.074;13.764;2024-03-08T11:57:25;100065.78;;;9.90
43802;BMP280;29429;51.074;13.764;2024-03-08T11:59:53;100059.88;;;10.01
43802;BMP280;29429;51.074;13.764;2024-03-08T12:02:25;100047.06;;;10.11
43802;BMP280;29429;51.074;13.764;2024-03-08T12:05:00;100043.09;;;10.21
43802;BMP280;29429;51.074;13.764;2024-03-08T12:07:28;100047.19;;;10.24
43802;BMP280;29429;51.074;13.764;2024-03-08T12:10:18;100037.38;;;10.31
43802;BMP280;29429;51.074;13.764;2024-03-08T12:12:48;100033.13;;;10.36
43802;BMP280;29429;51.074;13.764;2024-03-08T12:15:21;100038.91;;;10.47
43802;BMP280;29429;51.074;13.764;2024-03-08T12:17:52;100034.63;;;10.52
43802;BMP280;29429;51.074;13.764;2024-03-08T12:20:23;100034.63;;;10.52
43802;BMP280;29429;51.074;13.764;2024-03-08T12:22:54;100026.03;;;10.57
43802;BMP280;29429;51.074;13.764;2024-03-08T12:25:31;100024.03;;;10.65
43802;BMP280;29429;51.074;13.764;2024-03-08T12:28:12;100026.91;;;10.64
43802;BMP280;29429;51.074;13.764;2024-03-08T12:30:49;100027.13;;;10.69
43802;BMP280;29429;51.074;13.764;2024-03-08T12:33:18;100016.25;;;10.70
43802;BMP280;29429;51.074;13.764;2024-03-08T12:35:54;100008.47;;;10.75
43802;BMP280;29429;51.074;13.764;2024-03-08T12:38:22;100011.97;;;10.76
43802;BMP280;29429;51.074;13.764;2024-03-08T12:40:59;100007.25;;;10.78
43802;BMP280;29429;51.074;13.764;2024-03-08T12:43:27;100007.47;;;10.83
43802;BMP280;29429;51.074;13.764;2024-03-08T12:45:58;99990.25;;;10.79
43802;BMP280;29429;51.074;13.764;2024-03-08T12:48:25;99997.03;;;10.81
43802;BMP280;29429;51.074;13.764;2024-03-08T12:50:56;99996.22;;;10.87
43802;BMP280;29429;51.074;13.764;2024-03-08T12:53:23;99981.66;;;10.90
43802;BMP280;29429;51.074;13.764;2024-03-08T12:55:51;99981.25;;;10.93
43802;BMP280;29429;51.074;13.764;2024-03-08T12:58:19;99986.78;;;10.91
43802;BMP280;29429;51.074;13.764;2024-03-08T13:00:47;99975.50;;;10.89
43802;BMP280;29429;51.074;13.764;2024-03-08T13:03:17;99974.31;;;10.98
43802;BMP280;29429;51.074;13.764;2024-03-08T13:05:44;99973.88;;;11.01
43802;BMP280;29429;51.074;13.764;2024-03-08T13:08:11;99969.34;;;11.02
43802;BMP280;29429;51.074;13.764;2024-03-08T13:10:43;99964.63;;;11.04
43802;BMP280;29429;51.074;13.764;2024-03-08T13:13:11;99957.84;;;11.01
43802;BMP280;29429;51.074;13.764;2024-03-08T13:15:42;99958.72;;;11.09
43802;BMP280;29429;51.074;13.764;2024-03-08T13:18:15;99949.25;;;11.06
43802;BMP280;29429;51.074;13.764;2024-03-08T13:20:43;99957.88;;;11.08
43802;BMP280;29429;51.074;13.764;2024-03-08T13:23:30;99956.66;;;11.11
43802;BMP280;29429;51.074;13.764;2024-03-08T13:25:57;99950.31;;;11.12
43802;BMP280;29429;51.074;13.764;2024-03-08T13:28:24;99953.38;;;11.15
43802;BMP280;29429;51.074;13.764;2024-03-08T13:31:03;99948.88;;;11.22
43802;BMP280;29429;51.074;13.764;2024-03-08T13:33:33;99939.81;;;11.23
43802;BMP280;29429;51.074;13.764;2024-03-08T13:36:04;99935.31;;;11.24
43802;BMP280;29429;51.074;13.764;2024-03-08T13:38:36;99941.88;;;11.21
43802;BMP280;29429;51.074;13.764;2024-03-08T13:41:03;99914.97;;;11.23
43802;BMP280;29429;51.074;13.764;2024-03-08T13:43:30;99927.31;;;11.24
43802;BMP280;29429;51.074;13.764;2024-03-08T13:46:02;99912.31;;;11.23
43802;BMP280;29429;51.074;13.764;2024-03-08T13:48:29;99925.03;;;11.21
43802;BMP280;29429;51.074;13.764;2024-03-08T13:50:56;99911.09;;;11.19
43802;BMP280;29429;51.074;13.764;2024-03-08T13:53:23;99912.13;;;11.24
43802;BMP280;29429;51.074;13.764;2024-03-08T13:55:50;99911.91;;;11.26
43802;BMP280;29429;51.074;13.764;2024-03-08T13:58:18;99911.91;;;11.32
43802;BMP280;29429;51.074;13.764;2024-03-08T14:00:49;99903.06;;;11.32
43802;BMP280;29429;51.074;13.764;2024-03-08T14:03:18;99902.44;;;11.36
43802;BMP280;29429;51.074;13.764;2024-03-08T14:05:45;99900.00;;;11.35
43802;BMP280;29429;51.074;13.764;2024-03-08T14:08:13;99889.09;;;11.36
43802;BMP280;29429;51.074;13.764;2024-03-08T14:10:40;99895.88;;;11.39
43802;BMP280;29429;51.074;13.764;2024-03-08T14:13:09;99891.16;;;11.41
43802;BMP280;29429;51.074;13.764;2024-03-08T14:15:38;99884.38;;;11.45